createdAt,value
2018-12-30T00:00:33.839Z,89.70
2018-12-30T00:03:03.082Z,89.80
2018-12-30T00:05:32.151Z,89.50
2018-12-30T00:08:01.428Z,89.40
2018-12-30T00:10:30.107Z,89.30
2018-12-30T00:12:58.784Z,89.20
2018-12-30T00:15:27.854Z,89.60
2018-12-30T00:17:56.556Z,89.60
2018-12-30T00:20:25.217Z,89.40
2018-12-30T00:22:53.879Z,89.50
2018-12-30T00:25:22.526Z,89.90
2018-12-30T00:27:51.408Z,89.60
2018-12-30T00:30:20.354Z,89.90
2018-12-30T00:32:49.036Z,89.50
2018-12-30T00:35:17.699Z,90.00
2018-12-30T00:37:46.374Z,89.70
2018-12-30T00:40:15.031Z,89.60
2018-12-30T00:42:43.696Z,89.70
2018-12-30T00:45:12.299Z,89.60
2018-12-30T00:47:42.536Z,89.80
2018-12-30T00:50:11.217Z,89.80
2018-12-30T00:52:39.862Z,90.00
2018-12-30T00:55:09.203Z,89.80
2018-12-30T00:57:37.892Z,89.80
2018-12-30T01:00:08.049Z,89.60
2018-12-30T01:02:36.721Z,89.70
2018-12-30T01:05:05.467Z,89.60
2018-12-30T01:07:34.728Z,89.10
2018-12-30T01:10:03.644Z,89.10
2018-12-30T01:12:32.321Z,89.10
2018-12-30T01:15:01.021Z,89.60
2018-12-30T01:17:29.663Z,89.70
2018-12-30T01:19:58.350Z,89.50
2018-12-30T01:22:27.529Z,89.10
2018-12-30T01:24:56.191Z,89.20
2018-12-30T01:27:24.852Z,89.10
2018-12-30T01:29:53.536Z,89.10
2018-12-30T01:32:22.431Z,89.60
2018-12-30T01:34:51.015Z,88.80
2018-12-30T01:37:19.719Z,89.10
2018-12-30T01:39:48.405Z,89.40
2018-12-30T01:42:17.083Z,88.70
2018-12-30T01:44:46.004Z,89.10
2018-12-30T01:47:14.762Z,88.60
2018-12-30T01:49:44.056Z,89.40
2018-12-30T01:52:12.652Z,89.50
2018-12-30T01:54:41.299Z,89.60
2018-12-30T01:57:09.957Z,89.80
2018-12-30T01:59:38.611Z,89.40
2018-12-30T02:02:07.269Z,89.20
2018-12-30T02:04:35.936Z,89.10
2018-12-30T02:07:04.597Z,89.40
2018-12-30T02:09:33.344Z,89.80
2018-12-30T02:12:02.007Z,89.00
2018-12-30T02:14:30.646Z,88.70
2018-12-30T02:16:59.329Z,88.60
2018-12-30T02:19:27.995Z,89.00
2018-12-30T02:21:57.218Z,89.10
2018-12-30T02:24:25.889Z,88.80
2018-12-30T02:26:54.542Z,90.00
2018-12-30T02:29:23.235Z,89.10
2018-12-30T02:31:51.900Z,89.20
2018-12-30T02:34:20.703Z,89.20
2018-12-30T02:36:49.371Z,89.40
2018-12-30T02:39:17.964Z,89.80
2018-12-30T02:41:46.619Z,90.00
2018-12-30T02:44:15.273Z,90.00
2018-12-30T02:46:44.005Z,90.10
2018-12-30T02:49:12.660Z,90.00
2018-12-30T02:51:50.051Z,89.70
2018-12-30T02:54:11.688Z,89.40
2018-12-30T02:56:40.363Z,89.70
2018-12-30T02:59:09.342Z,90.00
2018-12-30T03:01:38.002Z,90.10
2018-12-30T03:04:06.681Z,90.00
2018-12-30T03:06:35.361Z,90.00
2018-12-30T03:09:06.187Z,90.10
2018-12-30T03:11:35.262Z,90.20
2018-12-30T03:14:03.917Z,90.10
2018-12-30T03:16:33.184Z,90.10
2018-12-30T03:19:01.869Z,90.10
2018-12-30T03:21:30.522Z,90.10
2018-12-30T03:23:59.507Z,90.10
2018-12-30T03:26:28.201Z,90.10
2018-12-30T03:28:56.824Z,90.00
2018-12-30T03:31:25.503Z,90.10
2018-12-30T03:33:54.177Z,90.20
2018-12-30T03:36:23.005Z,90.20
2018-12-30T03:38:51.668Z,90.30
2018-12-30T03:41:20.339Z,90.10
2018-12-30T03:43:49.015Z,90.40
2018-12-30T03:46:17.681Z,90.30
2018-12-30T03:48:46.388Z,90.10
2018-12-30T03:51:15.050Z,90.40
2018-12-30T03:53:43.719Z,90.40
2018-12-30T03:56:12.377Z,90.20
2018-12-30T03:58:41.048Z,90.20
2018-12-30T04:01:09.760Z,90.20
2018-12-30T04:03:38.424Z,90.10
2018-12-30T04:06:07.091Z,90.20
2018-12-30T04:08:35.756Z,90.30
2018-12-30T04:11:04.428Z,90.30
2018-12-30T04:13:33.112Z,90.30
2018-12-30T04:16:01.806Z,90.70
2018-12-30T04:18:30.472Z,90.40
2018-12-30T04:20:59.146Z,90.40
2018-12-30T04:23:27.841Z,90.40
2018-12-30T04:25:56.500Z,90.20
2018-12-30T04:28:25.188Z,90.30
2018-12-30T04:30:53.854Z,90.30
2018-12-30T04:33:22.516Z,90.30
2018-12-30T04:35:51.182Z,90.20
2018-12-30T04:38:19.917Z,90.30
2018-12-30T04:40:48.588Z,90.20
2018-12-30T04:43:17.266Z,90.00
2018-12-30T04:45:45.965Z,90.10
2018-12-30T04:48:14.640Z,90.10
2018-12-30T04:50:43.315Z,90.30
2018-12-30T04:53:12.001Z,90.20
2018-12-30T04:55:40.661Z,90.20
2018-12-30T04:58:09.335Z,90.20
2018-12-30T05:00:38.020Z,90.30
2018-12-30T05:03:06.672Z,90.10
2018-12-30T05:05:35.358Z,90.00
2018-12-30T05:08:04.070Z,90.00
2018-12-30T05:10:32.731Z,90.00
2018-12-30T05:13:01.730Z,90.10
2018-12-30T05:15:30.392Z,90.00
2018-12-30T05:17:59.097Z,89.90
2018-12-30T05:20:27.905Z,90.10
2018-12-30T05:22:56.565Z,89.80
2018-12-30T05:25:25.253Z,90.10
2018-12-30T05:27:53.973Z,90.00
2018-12-30T05:30:22.679Z,89.50
2018-12-30T05:32:51.331Z,89.40
2018-12-30T05:35:20.060Z,89.40
2018-12-30T05:37:48.722Z,89.00
2018-12-30T05:40:17.399Z,89.30
2018-12-30T05:42:46.426Z,89.60
2018-12-30T05:45:15.092Z,89.30
2018-12-30T05:47:43.800Z,89.30
2018-12-30T05:50:12.695Z,89.00
2018-12-30T05:52:42.093Z,88.90
2018-12-30T05:55:10.923Z,88.80
2018-12-30T05:57:39.709Z,88.70
2018-12-30T06:00:08.976Z,88.80
2018-12-30T06:02:37.672Z,88.90
2018-12-30T06:05:06.398Z,88.60
2018-12-30T06:07:35.043Z,88.30
2018-12-30T06:10:03.723Z,88.20
2018-12-30T06:12:32.980Z,87.80
2018-12-30T06:15:01.680Z,87.90
2018-12-30T06:17:30.343Z,88.40
2018-12-30T06:19:59.081Z,87.80
2018-12-30T06:22:27.757Z,87.80
2018-12-30T06:24:56.417Z,87.60
2018-12-30T06:27:25.767Z,87.30
2018-12-30T06:29:54.428Z,87.50
2018-12-30T06:32:23.101Z,87.30
2018-12-30T06:34:51.905Z,87.30
2018-12-30T06:37:20.627Z,87.40
2018-12-30T06:39:49.292Z,87.40
2018-12-30T06:42:18.231Z,87.00
2018-12-30T06:44:46.954Z,87.00
2018-12-30T06:47:15.640Z,86.90
2018-12-30T06:49:44.324Z,87.00
2018-12-30T06:52:13.012Z,86.90
2018-12-30T06:54:41.764Z,87.30
2018-12-30T06:57:10.567Z,87.30
2018-12-30T06:59:39.232Z,86.80
2018-12-30T07:02:07.914Z,86.30
2018-12-30T07:04:36.626Z,86.00
2018-12-30T07:07:05.276Z,85.90
2018-12-30T07:09:33.947Z,85.90
2018-12-30T07:12:02.659Z,85.80
2018-12-30T07:14:31.415Z,85.50
2018-12-30T07:17:00.065Z,85.00
2018-12-30T07:19:29.314Z,84.80
2018-12-30T07:21:58.032Z,85.00
2018-12-30T07:24:26.652Z,84.80
2018-12-30T07:26:55.690Z,84.70
2018-12-30T07:29:24.369Z,83.80
2018-12-30T07:31:53.037Z,84.80
2018-12-30T07:34:22.011Z,84.50
2018-12-30T07:36:50.710Z,84.70
2018-12-30T07:39:19.385Z,84.50
2018-12-30T07:41:48.094Z,84.50
2018-12-30T07:44:16.756Z,84.20
2018-12-30T07:46:45.466Z,84.60
2018-12-30T07:49:14.192Z,84.00
2018-12-30T07:51:42.881Z,83.50
2018-12-30T07:54:11.556Z,83.40
2018-12-30T07:56:40.840Z,83.40
2018-12-30T07:59:09.477Z,83.10
2018-12-30T08:01:38.159Z,82.40
2018-12-30T08:04:06.874Z,82.10
2018-12-30T08:06:35.568Z,81.00
2018-12-30T08:09:06.631Z,81.00
2018-12-30T08:11:35.357Z,81.00
2018-12-30T08:14:04.010Z,81.00
2018-12-30T08:16:32.885Z,80.20
2018-12-30T08:19:02.109Z,80.10
2018-12-30T08:21:30.748Z,80.60
2018-12-30T08:24:01.088Z,81.20
2018-12-30T08:26:29.735Z,80.40
2018-12-30T08:28:59.633Z,80.60
2018-12-30T08:31:28.309Z,80.20
2018-12-30T08:33:56.970Z,80.40
2018-12-30T08:36:25.638Z,82.40
2018-12-30T08:38:54.280Z,80.20
2018-12-30T08:41:22.950Z,81.60
2018-12-30T08:43:51.609Z,81.20
2018-12-30T08:46:20.290Z,79.80
2018-12-30T08:48:49.771Z,79.80
2018-12-30T08:51:18.725Z,80.70
2018-12-30T08:53:47.702Z,80.50
2018-12-30T08:56:16.357Z,80.00
2018-12-30T08:58:45.009Z,79.20
2018-12-30T09:01:13.707Z,79.80
2018-12-30T09:03:42.713Z,79.70
2018-12-30T09:06:11.589Z,80.60
2018-12-30T09:08:41.385Z,81.30
2018-12-30T09:11:10.083Z,81.70
2018-12-30T09:13:38.833Z,80.00
2018-12-30T09:16:07.569Z,79.40
2018-12-30T09:18:36.208Z,79.70
2018-12-30T09:21:04.871Z,80.50
2018-12-30T09:23:37.381Z,79.30
2018-12-30T09:26:03.904Z,79.80
2018-12-30T09:28:32.924Z,80.10
2018-12-30T09:31:01.895Z,79.30
2018-12-30T09:33:30.495Z,79.30
2018-12-30T09:35:59.234Z,79.40
2018-12-30T09:38:27.902Z,80.00
2018-12-30T09:40:56.645Z,79.80
2018-12-30T09:43:25.316Z,79.60
2018-12-30T09:45:53.976Z,79.50
2018-12-30T09:48:22.675Z,79.20
2018-12-30T09:50:51.348Z,78.40
2018-12-30T09:53:20.333Z,77.80
2018-12-30T09:55:48.978Z,78.20
2018-12-30T09:58:19.066Z,79.30
2018-12-30T10:00:47.779Z,78.60
2018-12-30T10:03:18.016Z,78.30
2018-12-30T10:05:46.702Z,78.30
2018-12-30T10:08:16.558Z,78.40
2018-12-30T10:10:45.405Z,78.50
2018-12-30T10:13:14.279Z,78.70
2018-12-30T10:15:42.971Z,78.00
2018-12-30T10:18:11.669Z,78.30
2018-12-30T10:20:40.572Z,78.30
2018-12-30T10:23:09.238Z,78.00
2018-12-30T10:25:37.974Z,78.30
2018-12-30T10:28:06.687Z,78.30
2018-12-30T10:30:35.362Z,79.30
2018-12-30T10:33:04.118Z,79.10
2018-12-30T10:35:32.823Z,79.60
2018-12-30T10:38:01.560Z,79.60
2018-12-30T10:40:31.860Z,79.10
2018-12-30T10:43:00.574Z,79.50
2018-12-30T10:45:29.231Z,79.50
2018-12-30T10:47:57.953Z,79.60
2018-12-30T10:50:26.733Z,79.90
2018-12-30T10:52:55.389Z,79.00
2018-12-30T10:55:24.053Z,78.90
2018-12-30T10:57:54.062Z,78.30
2018-12-30T11:00:24.830Z,79.10
2018-12-30T11:02:53.498Z,79.50
2018-12-30T11:05:22.152Z,79.80
2018-12-30T11:07:50.866Z,80.30
2018-12-30T11:10:19.536Z,80.80
2018-12-30T11:12:48.818Z,80.50
2018-12-30T11:15:17.509Z,80.40
2018-12-30T11:17:46.196Z,80.80
2018-12-30T11:20:14.933Z,80.60
2018-12-30T11:22:43.597Z,80.40
2018-12-30T11:25:12.511Z,80.40
2018-12-30T11:27:41.214Z,80.50
2018-12-30T11:30:09.925Z,80.60
2018-12-30T11:32:38.577Z,80.20
2018-12-30T11:35:07.265Z,80.20
2018-12-30T11:37:36.034Z,80.60
2018-12-30T11:40:06.635Z,80.50
2018-12-30T11:42:35.318Z,81.20
2018-12-30T11:45:04.510Z,81.10
2018-12-30T11:47:33.765Z,81.00
2018-12-30T11:50:02.506Z,82.20
2018-12-30T11:52:31.168Z,81.60
2018-12-30T11:54:59.941Z,82.00
2018-12-30T11:57:28.605Z,82.50
2018-12-30T11:59:57.379Z,82.20
2018-12-30T12:02:26.049Z,82.70
2018-12-30T12:04:55.204Z,82.60
2018-12-30T12:07:23.899Z,82.60
2018-12-30T12:09:52.570Z,82.50
2018-12-30T12:12:21.256Z,82.80
2018-12-30T12:14:49.926Z,82.20
2018-12-30T12:17:18.633Z,82.40
2018-12-30T12:19:47.311Z,82.80
2018-12-30T12:22:16.407Z,83.30
2018-12-30T12:24:45.183Z,83.60
2018-12-30T12:27:13.829Z,83.80
2018-12-30T12:29:42.535Z,84.40
2018-12-30T12:32:11.207Z,84.40
2018-12-30T12:34:39.894Z,84.80
2018-12-30T12:37:08.565Z,84.80
2018-12-30T12:39:37.290Z,84.90
2018-12-30T12:42:05.935Z,85.50
2018-12-30T12:44:34.604Z,85.30
2018-12-30T12:47:03.281Z,85.90
2018-12-30T12:49:31.961Z,85.60
2018-12-30T12:52:00.724Z,86.20
2018-12-30T12:54:32.199Z,85.80
2018-12-30T12:56:59.753Z,85.90
2018-12-30T12:59:28.490Z,86.00
2018-12-30T13:01:57.174Z,85.50
2018-12-30T13:04:26.250Z,85.60
2018-12-30T13:06:55.011Z,85.30
2018-12-30T13:09:23.696Z,85.90
2018-12-30T13:11:52.391Z,85.80
2018-12-30T13:14:21.044Z,85.60
2018-12-30T13:16:49.722Z,85.50
2018-12-30T13:19:18.421Z,85.40
2018-12-30T13:21:47.615Z,85.70
2018-12-30T13:24:16.305Z,85.80
2018-12-30T13:26:45.007Z,86.20
2018-12-30T13:29:13.695Z,86.50
2018-12-30T13:31:42.376Z,86.60
2018-12-30T13:34:11.059Z,86.60
2018-12-30T13:36:40.603Z,86.80
2018-12-30T13:39:09.692Z,86.40
2018-12-30T13:41:38.362Z,86.90
2018-12-30T13:44:09.779Z,86.50
2018-12-30T13:46:38.451Z,86.80
2018-12-30T13:49:07.143Z,87.00
2018-12-30T13:51:35.838Z,87.00
2018-12-30T13:54:04.503Z,87.10
2018-12-30T13:56:33.234Z,87.30
2018-12-30T13:59:01.911Z,87.20
2018-12-30T14:01:30.606Z,86.90
2018-12-30T14:03:59.343Z,87.20
2018-12-30T14:06:28.001Z,87.30
2018-12-30T14:08:56.704Z,87.40
2018-12-30T14:11:25.353Z,87.80
2018-12-30T14:13:54.075Z,87.90
2018-12-30T14:16:22.738Z,88.10
2018-12-30T14:18:51.408Z,87.10
2018-12-30T14:21:20.060Z,86.80
2018-12-30T14:23:48.734Z,86.60
2018-12-30T14:26:19.495Z,86.70
2018-12-30T14:28:48.222Z,86.60
2018-12-30T14:31:16.963Z,86.50
2018-12-30T14:33:45.617Z,86.80
2018-12-30T14:36:14.279Z,86.60
2018-12-30T14:38:42.978Z,86.60
2018-12-30T14:41:11.626Z,86.40
2018-12-30T14:43:40.346Z,86.50
2018-12-30T14:46:09.047Z,85.90
2018-12-30T14:48:37.897Z,86.40
2018-12-30T14:51:06.552Z,86.80
2018-12-30T14:53:35.261Z,87.30
2018-12-30T14:56:03.953Z,87.10
2018-12-30T14:58:32.624Z,86.50
2018-12-30T15:01:01.313Z,86.70
2018-12-30T15:03:29.992Z,87.50
2018-12-30T15:05:58.679Z,86.80
2018-12-30T15:08:27.346Z,86.70
2018-12-30T15:10:56.053Z,87.10
2018-12-30T15:13:24.748Z,87.00
2018-12-30T15:15:53.453Z,86.60
2018-12-30T15:18:22.143Z,86.20
2018-12-30T15:20:50.818Z,85.80
2018-12-30T15:23:19.906Z,86.20
2018-12-30T15:25:48.557Z,86.30
2018-12-30T15:28:17.239Z,86.10
2018-12-30T15:30:45.925Z,85.90
2018-12-30T15:33:14.594Z,86.40
2018-12-30T15:35:43.427Z,86.30
2018-12-30T15:38:12.116Z,86.70
2018-12-30T15:40:41.092Z,86.20
2018-12-30T15:43:09.858Z,86.30
2018-12-30T15:45:38.525Z,86.20
2018-12-30T15:48:07.202Z,86.40
2018-12-30T15:50:35.874Z,86.40
2018-12-30T15:53:04.570Z,86.60
2018-12-30T15:55:33.258Z,86.40
2018-12-30T15:58:02.213Z,86.20
2018-12-30T16:00:30.907Z,85.50
2018-12-30T16:02:59.622Z,85.50
2018-12-30T16:05:28.309Z,86.10
2018-12-30T16:07:56.970Z,85.60
2018-12-30T16:10:25.637Z,85.90
2018-12-30T16:13:00.588Z,85.60
2018-12-30T16:15:33.733Z,86.20
2018-12-30T16:18:02.389Z,86.90
2018-12-30T16:20:31.087Z,86.30
2018-12-30T16:22:59.746Z,86.40
2018-12-30T16:25:28.419Z,86.00
2018-12-30T16:27:57.100Z,86.40
2018-12-30T16:30:25.802Z,86.30
2018-12-30T16:32:54.774Z,86.50
2018-12-30T16:35:23.461Z,86.70
2018-12-30T16:37:52.121Z,87.00
2018-12-30T16:40:20.870Z,87.10
2018-12-30T16:42:49.558Z,86.50
2018-12-30T16:45:18.252Z,87.00
2018-12-30T16:47:46.948Z,86.70
2018-12-30T16:50:15.716Z,86.80
2018-12-30T16:52:44.370Z,86.60
2018-12-30T16:55:13.055Z,86.60
2018-12-30T16:57:41.739Z,86.40
2018-12-30T17:00:10.604Z,86.60
2018-12-30T17:02:41.262Z,86.30
2018-12-30T17:05:13.760Z,86.70
2018-12-30T17:07:42.461Z,86.80
2018-12-30T17:10:11.236Z,86.40
2018-12-30T17:12:39.905Z,86.70
2018-12-30T17:15:09.363Z,86.80
2018-12-30T17:17:38.049Z,86.70
2018-12-30T17:20:07.477Z,86.10
2018-12-30T17:22:36.189Z,85.80
2018-12-30T17:25:06.238Z,85.90
2018-12-30T17:27:34.919Z,85.50
2018-12-30T17:30:03.611Z,85.60
2018-12-30T17:32:32.282Z,85.60
2018-12-30T17:35:00.963Z,85.70
2018-12-30T17:37:29.638Z,86.20
2018-12-30T17:39:58.388Z,86.20
2018-12-30T17:42:27.703Z,85.90
2018-12-30T17:44:56.383Z,85.80
2018-12-30T17:47:25.071Z,85.20
2018-12-30T17:49:53.754Z,85.60
2018-12-30T17:52:22.432Z,85.80
2018-12-30T17:54:51.091Z,85.70
2018-12-30T17:57:19.761Z,85.60
2018-12-30T17:59:48.760Z,85.70
2018-12-30T18:02:17.596Z,86.20
2018-12-30T18:04:46.289Z,86.30
2018-12-30T18:07:14.973Z,86.60
2018-12-30T18:09:43.644Z,87.00
2018-12-30T18:12:12.325Z,87.00
2018-12-30T18:14:41.025Z,87.20
2018-12-30T18:17:12.498Z,87.50
2018-12-30T18:19:41.213Z,88.10
2018-12-30T18:22:09.938Z,88.40
2018-12-30T18:24:38.603Z,88.20
2018-12-30T18:27:07.270Z,88.60
2018-12-30T18:29:42.144Z,88.50
2018-12-30T18:32:10.857Z,88.30
2018-12-30T18:34:39.677Z,88.60
2018-12-30T18:40:05.240Z,88.80
2018-12-30T18:42:34.136Z,89.10
2018-12-30T18:45:02.862Z,88.70
2018-12-30T18:47:36.195Z,88.50
2018-12-30T18:52:49.999Z,88.60
2018-12-30T18:55:18.720Z,89.10
2018-12-30T18:57:47.506Z,88.60
2018-12-30T19:00:17.798Z,88.40
2018-12-30T19:02:46.630Z,88.20
2018-12-30T19:05:15.277Z,88.20
2018-12-30T19:07:43.971Z,88.00
2018-12-30T19:10:12.818Z,87.90
2018-12-30T19:12:41.469Z,88.10
2018-12-30T19:15:10.154Z,87.60
2018-12-30T19:17:38.863Z,87.50
2018-12-30T19:20:07.528Z,87.60
2018-12-30T19:22:36.205Z,87.80
2018-12-30T19:25:05.315Z,87.90
2018-12-30T19:27:34.033Z,88.00
2018-12-30T19:30:02.702Z,87.90
2018-12-30T19:32:31.409Z,87.80
2018-12-30T19:35:00.155Z,88.40
2018-12-30T19:37:29.368Z,87.80
2018-12-30T19:39:58.056Z,88.00
2018-12-30T19:42:26.903Z,88.30
2018-12-30T19:44:55.581Z,88.20
2018-12-30T19:47:24.237Z,87.80
2018-12-30T19:49:53.405Z,87.90
2018-12-30T19:52:25.087Z,87.60
2018-12-30T19:54:53.759Z,87.50
2018-12-30T19:57:23.992Z,87.60
2018-12-30T19:59:52.788Z,87.50
2018-12-30T20:02:21.450Z,87.80
2018-12-30T20:04:50.133Z,87.20
2018-12-30T20:07:18.838Z,87.20
2018-12-30T20:09:47.825Z,87.00
2018-12-30T20:12:16.691Z,87.00
2018-12-30T20:14:45.401Z,86.80
2018-12-30T20:17:14.068Z,87.10
2018-12-30T20:19:42.739Z,87.60
2018-12-30T20:22:11.609Z,87.80
2018-12-30T20:24:41.625Z,88.00
2018-12-30T20:27:10.340Z,87.90
2018-12-30T20:29:39.007Z,87.60
2018-12-30T20:32:07.797Z,88.10
2018-12-30T20:34:36.545Z,87.60
2018-12-30T20:37:05.238Z,87.60
2018-12-30T20:39:33.918Z,87.50
2018-12-30T20:42:02.596Z,87.60
2018-12-30T20:44:31.268Z,87.70
2018-12-30T20:47:00.057Z,87.40
2018-12-30T20:49:28.955Z,87.20
2018-12-30T20:51:57.676Z,87.00
2018-12-30T20:54:26.331Z,87.60
2018-12-30T20:56:55.027Z,87.00
2018-12-30T20:59:25.291Z,87.20
2018-12-30T21:01:53.975Z,86.60
2018-12-30T21:04:23.593Z,86.70
2018-12-30T21:06:52.277Z,86.80
2018-12-30T21:09:20.983Z,87.00
2018-12-30T21:11:49.657Z,87.20
2018-12-30T21:14:18.366Z,87.20
2018-12-30T21:16:47.246Z,87.10
2018-12-30T21:19:15.985Z,87.20
2018-12-30T21:21:44.683Z,87.20
2018-12-30T21:24:13.396Z,87.40
2018-12-30T21:26:45.456Z,87.10
2018-12-30T21:29:12.457Z,87.60
2018-12-30T21:31:41.176Z,87.60
2018-12-30T21:34:09.815Z,88.20
2018-12-30T21:36:39.914Z,88.20
2018-12-30T21:39:08.552Z,88.60
2018-12-30T21:41:37.222Z,87.80
2018-12-30T21:44:05.993Z,87.80
2018-12-30T21:46:34.682Z,88.20
2018-12-30T21:49:03.458Z,87.90
2018-12-30T21:51:32.156Z,87.50
2018-12-30T21:54:00.847Z,88.70
2018-12-30T21:56:29.484Z,87.80
2018-12-30T21:58:58.134Z,87.30
2018-12-30T22:01:26.793Z,87.60
2018-12-30T22:03:55.416Z,88.10
2018-12-30T22:06:24.082Z,88.10
2018-12-30T22:08:52.774Z,88.40
2018-12-30T22:11:21.437Z,88.60
2018-12-30T22:13:50.105Z,88.80
2018-12-30T22:16:18.794Z,89.30
2018-12-30T22:18:49.411Z,89.00
2018-12-30T22:21:18.076Z,88.80
2018-12-30T22:23:46.737Z,88.80
2018-12-30T22:26:15.405Z,89.50
2018-12-30T22:28:44.081Z,90.10
2018-12-30T22:31:13.360Z,89.50
2018-12-30T22:33:42.029Z,89.40
2018-12-30T22:36:10.758Z,89.10
2018-12-30T22:38:39.432Z,89.10
2018-12-30T22:41:08.154Z,89.50
2018-12-30T22:43:36.897Z,89.50
2018-12-30T22:46:06.245Z,89.50
2018-12-30T22:48:35.179Z,89.20
2018-12-30T22:51:04.021Z,89.50
2018-12-30T22:53:32.650Z,89.60
2018-12-30T22:56:01.328Z,89.70
2018-12-30T22:58:30.002Z,89.70
2018-12-30T23:01:00.296Z,90.00
2018-12-30T23:03:28.928Z,89.80
2018-12-30T23:05:57.634Z,89.80
2018-12-30T23:08:26.334Z,89.70
2018-12-30T23:10:55.002Z,89.60
2018-12-30T23:13:23.665Z,89.40
2018-12-30T23:15:52.345Z,89.20
2018-12-30T23:18:21.079Z,89.00
2018-12-30T23:20:49.853Z,89.20
2018-12-30T23:23:19.011Z,88.80
2018-12-30T23:25:48.463Z,88.70
2018-12-30T23:28:17.118Z,88.80
2018-12-30T23:30:45.806Z,88.80
2018-12-30T23:33:14.480Z,88.60
2018-12-30T23:35:43.146Z,88.80
2018-12-30T23:38:11.826Z,88.70
2018-12-30T23:40:40.508Z,88.90
2018-12-30T23:43:09.203Z,89.10
2018-12-30T23:45:37.915Z,88.80
2018-12-30T23:48:06.623Z,88.50
2018-12-30T23:50:35.262Z,88.80
2018-12-30T23:53:03.953Z,88.80
2018-12-30T23:55:32.617Z,88.60
2018-12-30T23:58:01.668Z,88.30
